sensor_id;sensor_type;location;lat;lon;timestamp;pressure;altitude;pressure_sealevel;temperature;humidity
85315;BME280;75718;50.886;11.656;2024-03-08T00:01:52;99168.38;;;-0.56;85.88
85315;BME280;75718;50.886;11.656;2024-03-08T00:04:17;99163.09;;;-0.66;86.04
85315;BME280;75718;50.886;11.656;2024-03-08T00:06:42;99167.19;;;-0.78;86.99
85315;BME280;75718;50.886;11.656;2024-03-08T00:09:10;99160.63;;;-0.59;86.24
85315;BME280;75718;50.886;11.656;2024-03-08T00:11:36;99160.56;;;-0.63;86.11
85315;BME280;75718;50.886;11.656;2024-03-08T00:14:01;99164.03;;;-0.60;85.72
85315;BME280;75718;50.886;11.656;2024-03-08T00:16:26;99153.47;;;-0.80;87.45
85315;BME280;75718;50.886;11.656;2024-03-08T00:18:52;99150.88;;;-0.80;87.22
85315;BME280;75718;50.886;11.656;2024-03-08T00:21:18;99156.16;;;-0.73;86.51
85315;BME280;75718;50.886;11.656;2024-03-08T00:23:43;99154.19;;;-0.87;86.98
85315;BME280;75718;50.886;11.656;2024-03-08T00:26:08;99154.72;;;-1.09;87.52
85315;BME280;75718;50.886;11.656;2024-03-08T00:28:34;99155.59;;;-1.09;88.09
85315;BME280;75718;50.886;11.656;2024-03-08T00:30:59;99146.97;;;-1.12;88.09
85315;BME280;75718;50.886;11.656;2024-03-08T00:33:25;99139.38;;;-1.05;87.49
85315;BME280;75718;50.886;11.656;2024-03-08T00:35:50;99144.28;;;-1.18;87.52
85315;BME280;75718;50.886;11.656;2024-03-08T00:38:16;99150.88;;;-1.33;89.13
85315;BME280;75718;50.886;11.656;2024-03-08T00:40:41;99152.91;;;-1.16;88.10
85315;BME280;75718;50.886;11.656;2024-03-08T00:43:06;99153.41;;;-1.38;88.47
85315;BME280;75718;50.886;11.656;2024-03-08T00:45:31;99148.44;;;-1.27;89.00
85315;BME280;75718;50.886;11.656;2024-03-08T00:47:57;99145.19;;;-1.18;88.63
85315;BME280;75718;50.886;11.656;2024-03-08T00:50:22;99139.13;;;-1.20;88.39
85315;BME280;75718;50.886;11.656;2024-03-08T00:52:47;99140.16;;;-1.09;87.70
85315;BME280;75718;50.886;11.656;2024-03-08T00:55:12;99134.19;;;-1.08;88.24
85315;BME280;75718;50.886;11.656;2024-03-08T00:57:38;99142.06;;;-0.99;87.70
85315;BME280;75718;50.886;11.656;2024-03-08T01:00:05;99135.16;;;-1.00;87.98
85315;BME280;75718;50.886;11.656;2024-03-08T01:02:35;99139.13;;;-1.20;88.25
85315;BME280;75718;50.886;11.656;2024-03-08T01:05:01;99138.09;;;-1.30;88.26
85315;BME280;75718;50.886;11.656;2024-03-08T01:07:26;99137.34;;;-1.23;88.33
85315;BME280;75718;50.886;11.656;2024-03-08T01:09:51;99129.75;;;-1.16;87.96
85315;BME280;75718;50.886;11.656;2024-03-08T01:12:16;99135.53;;;-1.30;88.75
85315;BME280;75718;50.886;11.656;2024-03-08T01:14:42;99133.53;;;-1.46;88.73
85315;BME280;75718;50.886;11.656;2024-03-08T01:17:07;99130.75;;;-1.61;89.48
85315;BME280;75718;50.886;11.656;2024-03-08T01:19:34;99132.38;;;-1.65;89.61
85315;BME280;75718;50.886;11.656;2024-03-08T01:21:59;99131.69;;;-1.55;89.54
85315;BME280;75718;50.886;11.656;2024-03-08T01:24:25;99130.09;;;-1.50;90.00
85315;BME280;75718;50.886;11.656;2024-03-08T01:26:50;99127.41;;;-1.56;89.28
85315;BME280;75718;50.886;11.656;2024-03-08T01:29:15;99125.28;;;-1.79;90.42
85315;BME280;75718;50.886;11.656;2024-03-08T01:31:40;99118.44;;;-1.79;90.66
85315;BME280;75718;50.886;11.656;2024-03-08T01:34:06;99114.88;;;-1.85;90.67
85315;BME280;75718;50.886;11.656;2024-03-08T01:36:31;99116.63;;;-1.84;90.78
85315;BME280;75718;50.886;11.656;2024-03-08T01:38:56;99115.88;;;-1.77;90.61
85315;BME280;75718;50.886;11.656;2024-03-08T01:41:22;99113.06;;;-1.92;91.42
85315;BME280;75718;50.886;11.656;2024-03-08T01:43:47;99101.63;;;-2.09;91.71
85315;BME280;75718;50.886;11.656;2024-03-08T01:46:15;99104.19;;;-2.10;91.90
85315;BME280;75718;50.886;11.656;2024-03-08T01:48:43;99095.41;;;-2.20;92.10
85315;BME280;75718;50.886;11.656;2024-03-08T01:51:09;99096.38;;;-2.15;91.98
85315;BME280;75718;50.886;11.656;2024-03-08T01:53:36;99097.63;;;-1.95;91.89
85315;BME280;75718;50.886;11.656;2024-03-08T01:56:02;99089.78;;;-2.02;92.01
85315;BME280;75718;50.886;11.656;2024-03-08T01:58:29;99093.03;;;-2.09;91.80
85315;BME280;75718;50.886;11.656;2024-03-08T02:00:56;99093.63;;;-2.24;91.90
85315;BME280;75718;50.886;11.656;2024-03-08T02:03:21;99089.53;;;-2.14;92.43
85315;BME280;75718;50.886;11.656;2024-03-08T02:05:48;99080.63;;;-1.87;91.67
85315;BME280;75718;50.886;11.656;2024-03-08T02:08:14;99084.47;;;-2.11;91.83
85315;BME280;75718;50.886;11.656;2024-03-08T02:10:40;99087.22;;;-2.01;91.34
85315;BME280;75718;50.886;11.656;2024-03-08T02:13:07;99089.47;;;-2.19;91.45
85315;BME280;75718;50.886;11.656;2024-03-08T02:15:55;99083.25;;;-2.30;92.63
85315;BME280;75718;50.886;11.656;2024-03-08T02:18:21;99081.59;;;-2.26;92.55
85315;BME280;75718;50.886;11.656;2024-03-08T02:20:58;99078.00;;;-2.36;92.92
85315;BME280;75718;50.886;11.656;2024-03-08T02:23:24;99077.19;;;-2.35;92.26
85315;BME280;75718;50.886;11.656;2024-03-08T02:25:53;99069.59;;;-2.29;92.12
85315;BME280;75718;50.886;11.656;2024-03-08T02:28:19;99076.44;;;-2.28;92.42
85315;BME280;75718;50.886;11.656;2024-03-08T02:30:45;99072.09;;;-2.32;93.02
85315;BME280;75718;50.886;11.656;2024-03-08T02:33:15;99067.16;;;-2.23;92.08
85315;BME280;75718;50.886;11.656;2024-03-08T02:35:44;99066.34;;;-2.19;91.47
85315;BME280;75718;50.886;11.656;2024-03-08T02:38:15;99068.09;;;-2.18;91.91
85315;BME280;75718;50.886;11.656;2024-03-08T02:40:44;99068.88;;;-2.22;92.18
85315;BME280;75718;50.886;11.656;2024-03-08T02:43:11;99065.53;;;-2.18;92.50
85315;BME280;75718;50.886;11.656;2024-03-08T02:45:37;99062.78;;;-2.27;92.64
85315;BME280;75718;50.886;11.656;2024-03-08T02:48:03;99068.78;;;-2.26;93.54
85315;BME280;75718;50.886;11.656;2024-03-08T02:50:28;99060.03;;;-2.37;93.12
85315;BME280;75718;50.886;11.656;2024-03-08T02:52:54;99052.44;;;-2.31;92.67
85315;BME280;75718;50.886;11.656;2024-03-08T02:55:19;99057.81;;;-2.18;92.49
85315;BME280;75718;50.886;11.656;2024-03-08T02:57:45;99046.72;;;-2.17;92.27
85315;BME280;75718;50.886;11.656;2024-03-08T03:00:12;99044.75;;;-2.30;92.24
85315;BME280;75718;50.886;11.656;2024-03-08T03:02:38;99044.59;;;-2.39;92.63
85315;BME280;75718;50.886;11.656;2024-03-08T03:05:04;99045.50;;;-2.37;93.28
85315;BME280;75718;50.886;11.656;2024-03-08T03:07:32;99042.16;;;-2.31;93.05
85315;BME280;75718;50.886;11.656;2024-03-08T03:09:58;99046.91;;;-2.06;92.53
85315;BME280;75718;50.886;11.656;2024-03-08T03:12:24;99045.34;;;-1.98;92.40
85315;BME280;75718;50.886;11.656;2024-03-08T03:14:49;99043.41;;;-2.11;92.68
85315;BME280;75718;50.886;11.656;2024-03-08T03:17:15;99041.34;;;-2.29;92.45
85315;BME280;75718;50.886;11.656;2024-03-08T03:19:40;99041.19;;;-2.38;92.89
85315;BME280;75718;50.886;11.656;2024-03-08T03:22:06;99038.75;;;-2.32;93.10
85315;BME280;75718;50.886;11.656;2024-03-08T03:24:32;99042.19;;;-2.30;92.66
85315;BME280;75718;50.886;11.656;2024-03-08T03:26:58;99032.50;;;-2.44;93.61
85315;BME280;75718;50.886;11.656;2024-03-08T03:29:24;99037.50;;;-2.51;93.85
85315;BME280;75718;50.886;11.656;2024-03-08T03:31:50;99040.66;;;-2.20;93.81
85315;BME280;75718;50.886;11.656;2024-03-08T03:34:16;99037.84;;;-2.34;93.17
85315;BME280;75718;50.886;11.656;2024-03-08T03:36:41;99041.72;;;-2.55;93.55
85315;BME280;75718;50.886;11.656;2024-03-08T03:39:08;99045.59;;;-2.73;93.83
85315;BME280;75718;50.886;11.656;2024-03-08T03:41:41;99030.88;;;-2.85;94.04
85315;BME280;75718;50.886;11.656;2024-03-08T03:44:07;99042.84;;;-2.82;94.54
85315;BME280;75718;50.886;11.656;2024-03-08T03:46:33;99032.78;;;-2.73;94.15
85315;BME280;75718;50.886;11.656;2024-03-08T03:48:58;99032.59;;;-2.82;94.00
85315;BME280;75718;50.886;11.656;2024-03-08T03:51:24;99030.31;;;-2.70;94.93
85315;BME280;75718;50.886;11.656;2024-03-08T03:53:49;99031.16;;;-2.70;94.56
85315;BME280;75718;50.886;11.656;2024-03-08T03:56:14;99026.69;;;-2.80;94.84
85315;BME280;75718;50.886;11.656;2024-03-08T03:58:40;99028.38;;;-2.80;94.99
85315;BME280;75718;50.886;11.656;2024-03-08T04:01:05;99032.69;;;-2.79;94.44
85315;BME280;75718;50.886;11.656;2024-03-08T04:03:30;99028.53;;;-2.73;94.12
85315;BME280;75718;50.886;11.656;2024-03-08T04:05:56;99022.72;;;-2.64;94.29
85315;BME280;75718;50.886;11.656;2024-03-08T04:08:21;99016.66;;;-2.69;93.70
85315;BME280;75718;50.886;11.656;2024-03-08T04:10:46;99014.81;;;-2.75;94.18
85315;BME280;75718;50.886;11.656;2024-03-08T04:13:11;99009.97;;;-2.61;94.18
85315;BME280;75718;50.886;11.656;2024-03-08T04:15:37;99022.09;;;-2.53;93.52
85315;BME280;75718;50.886;11.656;2024-03-08T04:18:03;99020.38;;;-2.54;93.90
85315;BME280;75718;50.886;11.656;2024-03-08T04:20:28;99022.00;;;-2.59;94.29
85315;BME280;75718;50.886;11.656;2024-03-08T04:22:54;99024.28;;;-2.72;94.64
85315;BME280;75718;50.886;11.656;2024-03-08T04:25:19;99014.66;;;-2.82;94.31
85315;BME280;75718;50.886;11.656;2024-03-08T04:27:45;99024.88;;;-2.84;94.51
85315;BME280;75718;50.886;11.656;2024-03-08T04:30:12;99019.53;;;-2.96;94.84
85315;BME280;75718;50.886;11.656;2024-03-08T04:32:37;99016.19;;;-2.92;94.04
85315;BME280;75718;50.886;11.656;2024-03-08T04:35:03;99014.53;;;-2.90;94.65
85315;BME280;75718;50.886;11.656;2024-03-08T04:37:28;99005.72;;;-3.02;94.65
85315;BME280;75718;50.886;11.656;2024-03-08T04:39:57;99000.59;;;-3.02;94.78
85315;BME280;75718;50.886;11.656;2024-03-08T04:42:22;99006.88;;;-2.88;94.84
85315;BME280;75718;50.886;11.656;2024-03-08T04:44:48;99001.66;;;-2.91;94.91
85315;BME280;75718;50.886;11.656;2024-03-08T04:47:13;99002.53;;;-2.91;95.05
85315;BME280;75718;50.886;11.656;2024-03-08T04:49:38;98999.81;;;-2.98;95.33
85315;BME280;75718;50.886;11.656;2024-03-08T04:52:04;99002.44;;;-2.95;95.25
85315;BME280;75718;50.886;11.656;2024-03-08T04:54:30;98999.84;;;-2.97;95.34
85315;BME280;75718;50.886;11.656;2024-03-08T04:56:56;98995.13;;;-2.76;94.27
85315;BME280;75718;50.886;11.656;2024-03-08T04:59:21;99000.13;;;-2.85;94.61
85315;BME280;75718;50.886;11.656;2024-03-08T05:01:46;98998.53;;;-2.78;94.52
85315;BME280;75718;50.886;11.656;2024-03-08T05:04:12;98996.06;;;-2.72;94.58
85315;BME280;75718;50.886;11.656;2024-03-08T05:06:37;98994.50;;;-2.64;94.89
85315;BME280;75718;50.886;11.656;2024-03-08T05:09:03;98988.41;;;-2.71;94.24
85315;BME280;75718;50.886;11.656;2024-03-08T05:11:41;98992.88;;;-2.61;94.78
85315;BME280;75718;50.886;11.656;2024-03-08T05:14:07;98994.22;;;-2.81;94.07
85315;BME280;75718;50.886;11.656;2024-03-08T05:16:33;98993.13;;;-2.92;95.18
85315;BME280;75718;50.886;11.656;2024-03-08T05:18:58;98997.31;;;-2.95;95.51
85315;BME280;75718;50.886;11.656;2024-03-08T05:21:24;98989.44;;;-3.04;96.07
85315;BME280;75718;50.886;11.656;2024-03-08T05:23:50;99001.44;;;-3.01;96.38
85315;BME280;75718;50.886;11.656;2024-03-08T05:26:18;99003.22;;;-2.99;96.19
85315;BME280;75718;50.886;11.656;2024-03-08T05:28:47;98999.78;;;-3.01;95.36
85315;BME280;75718;50.886;11.656;2024-03-08T05:31:21;98995.41;;;-3.06;95.46
85315;BME280;75718;50.886;11.656;2024-03-08T05:33:49;99005.66;;;-3.06;95.08
85315;BME280;75718;50.886;11.656;2024-03-08T05:36:15;98992.25;;;-2.94;95.10
85315;BME280;75718;50.886;11.656;2024-03-08T05:38:42;98994.03;;;-2.90;94.79
85315;BME280;75718;50.886;11.656;2024-03-08T05:41:08;99004.13;;;-2.97;94.89
85315;BME280;75718;50.886;11.656;2024-03-08T05:43:34;98997.41;;;-2.91;94.96
85315;BME280;75718;50.886;11.656;2024-03-08T05:45:59;98994.56;;;-3.04;95.51
85315;BME280;75718;50.886;11.656;2024-03-08T05:48:24;98991.16;;;-3.03;95.73
85315;BME280;75718;50.886;11.656;2024-03-08T05:50:50;98990.22;;;-3.08;95.62
85315;BME280;75718;50.886;11.656;2024-03-08T05:53:15;98982.69;;;-3.00;95.40
85315;BME280;75718;50.886;11.656;2024-03-08T05:55:40;98993.91;;;-2.96;95.21
85315;BME280;75718;50.886;11.656;2024-03-08T05:58:06;98985.63;;;-2.81;95.22
85315;BME280;75718;50.886;11.656;2024-03-08T06:00:33;98988.28;;;-2.78;94.74
85315;BME280;75718;50.886;11.656;2024-03-08T06:02:58;98993.25;;;-2.86;94.96
85315;BME280;75718;50.886;11.656;2024-03-08T06:05:25;98994.81;;;-2.94;95.01
85315;BME280;75718;50.886;11.656;2024-03-08T06:07:50;98991.56;;;-2.84;95.13
85315;BME280;75718;50.886;11.656;2024-03-08T06:10:18;98988.09;;;-2.87;94.96
85315;BME280;75718;50.886;11.656;2024-03-08T06:12:43;98982.78;;;-2.96;95.68
85315;BME280;75718;50.886;11.656;2024-03-08T06:15:10;98984.56;;;-2.94;95.59
85315;BME280;75718;50.886;11.656;2024-03-08T06:17:39;98982.25;;;-2.79;94.96
85315;BME280;75718;50.886;11.656;2024-03-08T06:20:05;98992.06;;;-2.58;95.17
85315;BME280;75718;50.886;11.656;2024-03-08T06:22:36;98986.91;;;-2.60;94.88
85315;BME280;75718;50.886;11.656;2024-03-08T06:25:01;98987.94;;;-2.50;95.29
85315;BME280;75718;50.886;11.656;2024-03-08T06:27:27;98982.94;;;-2.43;95.27
85315;BME280;75718;50.886;11.656;2024-03-08T06:29:52;98988.19;;;-2.37;95.00
85315;BME280;75718;50.886;11.656;2024-03-08T06:32:17;98986.66;;;-2.26;94.57
85315;BME280;75718;50.886;11.656;2024-03-08T06:34:45;98985.00;;;-2.23;93.44
85315;BME280;75718;50.886;11.656;2024-03-08T06:37:15;98982.56;;;-2.17;93.88
85315;BME280;75718;50.886;11.656;2024-03-08T06:39:40;98978.44;;;-2.07;93.55
85315;BME280;75718;50.886;11.656;2024-03-08T06:42:05;98977.69;;;-2.00;93.50
85315;BME280;75718;50.886;11.656;2024-03-08T06:44:31;98981.97;;;-2.01;93.80
85315;BME280;75718;50.886;11.656;2024-03-08T06:46:56;98981.06;;;-2.03;93.57
85315;BME280;75718;50.886;11.656;2024-03-08T06:49:21;98978.59;;;-1.97;93.79
85315;BME280;75718;50.886;11.656;2024-03-08T06:51:47;98981.34;;;-1.85;93.91
85315;BME280;75718;50.886;11.656;2024-03-08T06:54:12;98979.72;;;-1.80;93.45
85315;BME280;75718;50.886;11.656;2024-03-08T06:56:37;98981.59;;;-1.70;92.75
85315;BME280;75718;50.886;11.656;2024-03-08T06:59:03;98964.44;;;-1.71;92.15
85315;BME280;75718;50.886;11.656;2024-03-08T07:01:29;98979.03;;;-1.70;92.53
85315;BME280;75718;50.886;11.656;2024-03-08T07:03:59;98980.94;;;-1.57;92.32
85315;BME280;75718;50.886;11.656;2024-03-08T07:06:27;98970.81;;;-1.45;91.94
85315;BME280;75718;50.886;11.656;2024-03-08T07:08:53;98966.69;;;-1.34;91.62
85315;BME280;75718;50.886;11.656;2024-03-08T07:11:19;98962.53;;;-1.25;91.96
85315;BME280;75718;50.886;11.656;2024-03-08T07:13:45;98963.56;;;-1.11;91.82
85315;BME280;75718;50.886;11.656;2024-03-08T07:16:10;98963.69;;;-1.01;91.25
85315;BME280;75718;50.886;11.656;2024-03-08T07:18:37;98958.78;;;-0.83;90.26
85315;BME280;75718;50.886;11.656;2024-03-08T07:21:05;98949.50;;;-0.67;89.69
85315;BME280;75718;50.886;11.656;2024-03-08T07:23:30;98953.94;;;-0.53;88.97
85315;BME280;75718;50.886;11.656;2024-03-08T07:26:33;98951.53;;;-0.37;88.73
85315;BME280;75718;50.886;11.656;2024-03-08T07:28:59;98941.31;;;-0.28;88.28
85315;BME280;75718;50.886;11.656;2024-03-08T07:31:25;98938.94;;;-0.05;88.40
85315;BME280;75718;50.886;11.656;2024-03-08T07:33:50;98936.56;;;0.24;88.80
85315;BME280;75718;50.886;11.656;2024-03-08T07:36:16;98933.38;;;0.58;86.86
85315;BME280;75718;50.886;11.656;2024-03-08T07:38:41;98931.81;;;0.94;86.48
85315;BME280;75718;50.886;11.656;2024-03-08T07:41:06;98930.22;;;1.27;84.01
85315;BME280;75718;50.886;11.656;2024-03-08T07:43:32;98923.38;;;1.58;83.47
85315;BME280;75718;50.886;11.656;2024-03-08T07:46:00;98924.28;;;1.88;82.33
85315;BME280;75718;50.886;11.656;2024-03-08T07:48:25;98900.16;;;2.10;81.90
85315;BME280;75718;50.886;11.656;2024-03-08T07:50:50;98901.88;;;2.20;80.45
85315;BME280;75718;50.886;11.656;2024-03-08T07:53:16;98898.31;;;2.56;78.93
85315;BME280;75718;50.886;11.656;2024-03-08T07:55:41;98894.72;;;3.03;78.45
85315;BME280;75718;50.886;11.656;2024-03-08T07:58:07;98885.13;;;3.19;77.68
85315;BME280;75718;50.886;11.656;2024-03-08T08:00:36;98882.25;;;3.63;77.11
85315;BME280;75718;50.886;11.656;2024-03-08T08:03:02;98878.50;;;3.99;74.79
85315;BME280;75718;50.886;11.656;2024-03-08T08:05:27;98881.56;;;4.44;73.84
85315;BME280;75718;50.886;11.656;2024-03-08T08:07:52;98875.97;;;4.76;71.73
85315;BME280;75718;50.886;11.656;2024-03-08T08:10:18;98871.16;;;5.17;69.96
85315;BME280;75718;50.886;11.656;2024-03-08T08:12:46;98853.19;;;5.61;68.50
85315;BME280;75718;50.886;11.656;2024-03-08T08:15:12;98852.75;;;5.89;67.23
85315;BME280;75718;50.886;11.656;2024-03-08T08:17:38;98845.94;;;6.30;65.83
85315;BME280;75718;50.886;11.656;2024-03-08T08:20:04;98844.22;;;6.29;66.36
85315;BME280;75718;50.886;11.656;2024-03-08T08:22:30;98843.78;;;6.53;65.49
85315;BME280;75718;50.886;11.656;2024-03-08T08:24:56;98837.88;;;6.89;64.29
85315;BME280;75718;50.886;11.656;2024-03-08T08:27:21;98843.28;;;6.77;64.48
85315;BME280;75718;50.886;11.656;2024-03-08T08:29:46;98844.47;;;6.62;63.83
85315;BME280;75718;50.886;11.656;2024-03-08T08:32:12;98830.94;;;6.88;63.73
85315;BME280;75718;50.886;11.656;2024-03-08T08:34:37;98832.75;;;7.23;62.32
85315;BME280;75718;50.886;11.656;2024-03-08T08:37:02;98815.94;;;7.36;63.08
85315;BME280;75718;50.886;11.656;2024-03-08T08:39:27;98823.41;;;7.53;58.89
85315;BME280;75718;50.886;11.656;2024-03-08T08:41:53;98821.88;;;7.43;59.02
85315;BME280;75718;50.886;11.656;2024-03-08T08:44:18;98828.09;;;7.37;60.49
85315;BME280;75718;50.886;11.656;2024-03-08T08:46:43;98829.28;;;7.23;60.38
85315;BME280;75718;50.886;11.656;2024-03-08T08:49:09;98826.72;;;7.58;59.36
85315;BME280;75718;50.886;11.656;2024-03-08T08:51:39;98820.31;;;7.72;61.35
85315;BME280;75718;50.886;11.656;2024-03-08T08:54:05;98815.13;;;8.04;60.61
85315;BME280;75718;50.886;11.656;2024-03-08T08:56:31;98814.28;;;8.38;58.74
85315;BME280;75718;50.886;11.656;2024-03-08T08:58:57;98813.66;;;8.29;57.80
85315;BME280;75718;50.886;11.656;2024-03-08T09:01:23;98804.59;;;8.72;56.60
85315;BME280;75718;50.886;11.656;2024-03-08T09:03:48;98791.03;;;9.18;56.64
85315;BME280;75718;50.886;11.656;2024-03-08T09:06:15;98791.69;;;8.96;56.65
85315;BME280;75718;50.886;11.656;2024-03-08T09:08:41;98782.84;;;9.56;56.36
85315;BME280;75718;50.886;11.656;2024-03-08T09:11:07;98767.88;;;10.13;54.46
85315;BME280;75718;50.886;11.656;2024-03-08T09:13:33;98765.66;;;10.01;53.96
85315;BME280;75718;50.886;11.656;2024-03-08T09:16:02;98768.03;;;9.81;54.67
85315;BME280;75718;50.886;11.656;2024-03-08T09:18:28;98766.00;;;9.64;54.17
85315;BME280;75718;50.886;11.656;2024-03-08T09:20:53;98757.88;;;10.23;52.80
85315;BME280;75718;50.886;11.656;2024-03-08T09:23:22;98753.38;;;10.27;52.72
85315;BME280;75718;50.886;11.656;2024-03-08T09:25:47;98752.78;;;10.90;51.87
85315;BME280;75718;50.886;11.656;2024-03-08T09:28:12;98747.97;;;11.45;49.73
85315;BME280;75718;50.886;11.656;2024-03-08T09:30:38;98747.50;;;11.57;47.99
85315;BME280;75718;50.886;11.656;2024-03-08T09:33:05;98734.66;;;11.50;47.92
85315;BME280;75718;50.886;11.656;2024-03-08T09:35:30;98740.00;;;11.04;47.86
85315;BME280;75718;50.886;11.656;2024-03-08T09:37:56;98741.50;;;10.66;48.03
85315;BME280;75718;50.886;11.656;2024-03-08T09:40:21;98735.97;;;11.17;47.88
85315;BME280;75718;50.886;11.656;2024-03-08T09:42:49;98730.09;;;11.32;47.58
85315;BME280;75718;50.886;11.656;2024-03-08T09:45:16;98719.56;;;11.76;47.06
85315;BME280;75718;50.886;11.656;2024-03-08T09:47:42;98725.44;;;11.40;47.18
85315;BME280;75718;50.886;11.656;2024-03-08T09:50:09;98728.81;;;11.65;46.17
85315;BME280;75718;50.886;11.656;2024-03-08T09:52:47;98717.47;;;12.04;45.13
85315;BME280;75718;50.886;11.656;2024-03-08T09:55:13;98708.69;;;11.85;45.84
85315;BME280;75718;50.886;11.656;2024-03-08T09:57:39;98718.06;;;11.05;47.86
85315;BME280;75718;50.886;11.656;2024-03-08T10:00:05;98718.50;;;11.16;47.56
85315;BME280;75718;50.886;11.656;2024-03-08T10:02:47;98709.44;;;11.67;46.80
85315;BME280;75718;50.886;11.656;2024-03-08T10:05:12;98712.47;;;11.36;46.94
85315;BME280;75718;50.886;11.656;2024-03-08T10:07:39;98706.63;;;11.29;47.43
85315;BME280;75718;50.886;11.656;2024-03-08T10:10:04;98710.56;;;11.18;48.31
85315;BME280;75718;50.886;11.656;2024-03-08T10:12:29;98702.91;;;11.56;47.31
85315;BME280;75718;50.886;11.656;2024-03-08T10:14:58;98701.44;;;11.28;47.20
85315;BME280;75718;50.886;11.656;2024-03-08T10:17:23;98693.81;;;11.64;47.29
85315;BME280;75718;50.886;11.656;2024-03-08T10:19:50;98692.66;;;11.29;46.21
85315;BME280;75718;50.886;11.656;2024-03-08T10:22:16;98687.00;;;12.20;46.54
85315;BME280;75718;50.886;11.656;2024-03-08T10:24:41;98676.19;;;12.46;45.51
85315;BME280;75718;50.886;11.656;2024-03-08T10:27:07;98667.44;;;13.02;43.43
85315;BME280;75718;50.886;11.656;2024-03-08T10:29:32;98661.56;;;12.77;41.81
85315;BME280;75718;50.886;11.656;2024-03-08T10:31:58;98662.75;;;13.77;42.62
85315;BME280;75718;50.886;11.656;2024-03-08T10:34:23;98661.09;;;13.06;41.55
85315;BME280;75718;50.886;11.656;2024-03-08T10:36:50;98658.66;;;13.72;42.98
85315;BME280;75718;50.886;11.656;2024-03-08T10:39:24;98655.84;;;13.06;41.92
85315;BME280;75718;50.886;11.656;2024-03-08T10:41:56;98656.03;;;13.20;43.58
85315;BME280;75718;50.886;11.656;2024-03-08T10:47:15;98665.72;;;12.82;43.34
85315;BME280;75718;50.886;11.656;2024-03-08T10:50:09;98657.97;;;12.98;42.38
85315;BME280;75718;50.886;11.656;2024-03-08T10:52:36;98639.91;;;13.44;44.48
85315;BME280;75718;50.886;11.656;2024-03-08T10:55:02;98647.28;;;13.71;43.04
85315;BME280;75718;50.886;11.656;2024-03-08T10:57:27;98642.22;;;13.67;42.35
85315;BME280;75718;50.886;11.656;2024-03-08T10:59:52;98649.16;;;13.34;41.26
85315;BME280;75718;50.886;11.656;2024-03-08T11:02:19;98648.56;;;13.46;42.88
85315;BME280;75718;50.886;11.656;2024-03-08T11:04:49;98641.13;;;13.71;42.12
85315;BME280;75718;50.886;11.656;2024-03-08T11:07:15;98628.59;;;14.42;40.52
85315;BME280;75718;50.886;11.656;2024-03-08T11:09:43;98632.75;;;14.30;40.57
85315;BME280;75718;50.886;11.656;2024-03-08T11:12:22;98625.16;;;15.02;40.04
85315;BME280;75718;50.886;11.656;2024-03-08T11:14:51;98621.56;;;14.73;39.64
85315;BME280;75718;50.886;11.656;2024-03-08T11:22:42;98601.25;;;14.42;39.64
85315;BME280;75718;50.886;11.656;2024-03-08T11:25:30;98598.81;;;14.55;38.96
85315;BME280;75718;50.886;11.656;2024-03-08T11:28:18;98591.88;;;15.60;38.43
85315;BME280;75718;50.886;11.656;2024-03-08T11:30:44;98597.59;;;14.77;40.85
85315;BME280;75718;50.886;11.656;2024-03-08T11:33:13;98593.94;;;14.32;39.22
85315;BME280;75718;50.886;11.656;2024-03-08T11:35:39;98598.50;;;13.63;39.59
85315;BME280;75718;50.886;11.656;2024-03-08T11:38:08;98596.59;;;13.66;39.11
85315;BME280;75718;50.886;11.656;2024-03-08T11:40:35;98591.38;;;14.31;39.97
85315;BME280;75718;50.886;11.656;2024-03-08T11:43:00;98581.03;;;15.20;39.66
85315;BME280;75718;50.886;11.656;2024-03-08T11:45:29;98571.00;;;15.56;39.68
85315;BME280;75718;50.886;11.656;2024-03-08T11:47:54;98569.81;;;14.86;38.26
85315;BME280;75718;50.886;11.656;2024-03-08T11:50:20;98573.63;;;13.85;41.63
85315;BME280;75718;50.886;11.656;2024-03-08T11:52:49;98562.53;;;15.20;40.07
85315;BME280;75718;50.886;11.656;2024-03-08T11:55:14;98552.06;;;15.77;39.57
85315;BME280;75718;50.886;11.656;2024-03-08T11:57:39;98548.22;;;15.82;37.21
85315;BME280;75718;50.886;11.656;2024-03-08T12:00:05;98555.47;;;15.05;38.85
85315;BME280;75718;50.886;11.656;2024-03-08T12:02:34;98557.19;;;15.06;40.61
85315;BME280;75718;50.886;11.656;2024-03-08T12:05:04;98553.84;;;15.33;40.04
85315;BME280;75718;50.886;11.656;2024-03-08T12:07:31;98541.13;;;15.83;39.12
85315;BME280;75718;50.886;11.656;2024-03-08T12:12:47;98528.19;;;15.35;38.15
85315;BME280;75718;50.886;11.656;2024-03-08T12:15:15;98519.28;;;15.65;37.82
85315;BME280;75718;50.886;11.656;2024-03-08T12:17:40;98514.22;;;16.04;38.60
85315;BME280;75718;50.886;11.656;2024-03-08T12:20:24;98512.03;;;15.40;38.53
85315;BME280;75718;50.886;11.656;2024-03-08T12:22:55;98508.50;;;15.55;37.86
85315;BME280;75718;50.886;11.656;2024-03-08T12:25:33;98496.94;;;15.28;37.92
85315;BME280;75718;50.886;11.656;2024-03-08T12:28:10;98494.28;;;16.13;38.26
85315;BME280;75718;50.886;11.656;2024-03-08T12:30:45;98488.78;;;16.43;37.78
85315;BME280;75718;50.886;11.656;2024-03-08T12:33:11;98498.06;;;16.09;37.52
85315;BME280;75718;50.886;11.656;2024-03-08T12:35:38;98484.72;;;15.96;35.56
85315;BME280;75718;50.886;11.656;2024-03-08T12:38:03;98478.97;;;16.04;36.16
85315;BME280;75718;50.886;11.656;2024-03-08T12:40:32;98483.22;;;16.20;37.89
85315;BME280;75718;50.886;11.656;2024-03-08T12:42:59;98480.47;;;16.08;36.55
85315;BME280;75718;50.886;11.656;2024-03-08T12:45:25;98477.59;;;16.26;37.35
85315;BME280;75718;50.886;11.656;2024-03-08T12:47:51;98460.75;;;16.67;37.25
85315;BME280;75718;50.886;11.656;2024-03-08T12:50:17;98470.56;;;16.25;36.99
85315;BME280;75718;50.886;11.656;2024-03-08T12:52:43;98459.63;;;15.75;36.91
85315;BME280;75718;50.886;11.656;2024-03-08T12:55:08;98466.34;;;15.24;37.80
85315;BME280;75718;50.886;11.656;2024-03-08T12:57:35;98457.28;;;16.53;36.67
85315;BME280;75718;50.886;11.656;2024-03-08T13:00:02;98449.03;;;17.22;35.92